createdAt,value
2022-12-05T00:01:35.211Z,4.68
2022-12-05T00:04:02.739Z,4.56
2022-12-05T00:06:29.908Z,4.59
2022-12-05T00:08:56.824Z,4.35
2022-12-05T00:11:24.600Z,4.19
2022-12-05T00:13:52.026Z,4.08
2022-12-05T00:16:19.364Z,4.07
2022-12-05T00:18:46.152Z,4.13
2022-12-05T00:21:13.994Z,4.18
2022-12-05T00:23:40.622Z,4.19
2022-12-05T00:26:07.304Z,4.22
2022-12-05T00:28:34.232Z,4.17
2022-12-05T00:31:04.805Z,4.28
2022-12-05T00:33:31.428Z,4.52
2022-12-05T00:36:04.905Z,4.62
2022-12-05T00:38:31.382Z,4.52
2022-12-05T00:41:02.197Z,4.40
2022-12-05T00:43:28.683Z,4.48
2022-12-05T00:45:55.266Z,4.43
2022-12-05T00:48:21.851Z,4.50
2022-12-05T00:50:48.428Z,4.47
2022-12-05T00:53:14.922Z,4.42
2022-12-05T00:55:41.477Z,4.38
2022-12-05T00:58:07.973Z,4.38
2022-12-05T01:00:34.557Z,4.50
2022-12-05T01:03:01.151Z,4.60
2022-12-05T01:05:27.784Z,4.47
2022-12-05T01:07:54.368Z,4.52
2022-12-05T01:10:20.986Z,4.55
2022-12-05T01:12:47.518Z,4.49
2022-12-05T01:15:14.104Z,4.51
2022-12-05T01:17:40.649Z,4.52
2022-12-05T01:20:07.641Z,4.53
2022-12-05T01:22:34.173Z,4.69
2022-12-05T01:25:00.760Z,4.64
2022-12-05T01:27:27.284Z,4.52
2022-12-05T01:29:54.531Z,4.28
2022-12-05T01:32:21.554Z,4.38
2022-12-05T01:34:48.191Z,4.17
2022-12-05T01:37:14.781Z,4.18
2022-12-05T01:39:41.430Z,4.25
2022-12-05T01:42:07.946Z,4.30
2022-12-05T01:44:34.557Z,4.32
2022-12-05T01:47:01.161Z,4.14
2022-12-05T01:49:27.710Z,4.18
2022-12-05T01:52:01.614Z,4.05
2022-12-05T01:54:28.291Z,4.15
2022-12-05T01:57:01.719Z,4.18
2022-12-05T01:59:31.848Z,4.15
2022-12-05T02:01:58.529Z,4.13
2022-12-05T02:04:25.050Z,3.96
2022-12-05T02:06:51.615Z,4.04
2022-12-05T02:09:18.148Z,3.91
2022-12-05T02:11:47.589Z,3.87
2022-12-05T02:14:17.128Z,3.58
2022-12-05T02:16:46.620Z,3.53
2022-12-05T02:19:15.959Z,3.57
2022-12-05T02:21:45.335Z,3.68
2022-12-05T02:24:30.766Z,3.71
2022-12-05T02:27:00.663Z,3.84
2022-12-05T02:29:39.118Z,3.68
2022-12-05T02:32:24.632Z,3.73
2022-12-05T02:34:55.095Z,3.84
2022-12-05T02:37:33.002Z,3.89
2022-12-05T02:40:10.691Z,3.59
2022-12-05T02:42:55.962Z,3.63
2022-12-05T02:45:23.370Z,3.78
2022-12-05T02:47:53.602Z,3.87
2022-12-05T02:50:23.939Z,3.84
2022-12-05T02:52:51.174Z,3.79
2022-12-05T02:55:18.003Z,3.90
2022-12-05T02:57:45.813Z,3.67
2022-12-05T03:00:12.627Z,3.82
2022-12-05T03:02:39.279Z,3.91
2022-12-05T03:05:17.627Z,3.90
2022-12-05T03:07:45.176Z,3.73
2022-12-05T03:10:11.744Z,3.84
2022-12-05T03:12:39.882Z,3.69
2022-12-05T03:15:07.690Z,3.99
2022-12-05T03:17:45.082Z,4.12
2022-12-05T03:20:14.914Z,4.18
2022-12-05T03:23:00.931Z,4.21
2022-12-05T03:25:30.402Z,4.21
2022-12-05T03:28:00.018Z,4.31
2022-12-05T03:30:27.575Z,4.31
2022-12-05T03:32:58.294Z,4.35
2022-12-05T03:35:43.702Z,4.32
2022-12-05T03:38:11.697Z,4.35
2022-12-05T03:40:38.129Z,4.44
2022-12-05T03:43:12.893Z,4.48
2022-12-05T03:45:42.145Z,4.39
2022-12-05T03:48:15.681Z,4.41
2022-12-05T03:50:43.170Z,4.42
2022-12-05T03:53:19.520Z,4.57
2022-12-05T03:55:47.391Z,4.54
2022-12-05T03:58:15.717Z,4.54
2022-12-05T04:00:43.162Z,4.53
2022-12-05T04:03:19.465Z,4.60
2022-12-05T04:05:59.373Z,4.46
2022-12-05T04:08:26.911Z,4.45
2022-12-05T04:10:54.524Z,4.40
2022-12-05T04:13:25.452Z,4.63
2022-12-05T04:16:15.338Z,4.40
2022-12-05T04:18:42.950Z,4.46
2022-12-05T04:21:28.323Z,4.46
2022-12-05T04:24:14.109Z,4.42
2022-12-05T04:26:43.361Z,4.47
2022-12-05T04:29:17.767Z,4.46
2022-12-05T04:31:44.406Z,4.54
2022-12-05T04:34:11.889Z,4.38
2022-12-05T04:36:50.567Z,4.40
2022-12-05T04:39:21.399Z,4.45
2022-12-05T04:41:49.668Z,4.45
2022-12-05T04:44:16.613Z,4.70
2022-12-05T04:46:43.831Z,4.75
2022-12-05T04:49:11.270Z,4.87
2022-12-05T04:51:38.006Z,4.65
2022-12-05T04:54:05.903Z,4.61
2022-12-05T04:56:35.091Z,4.64
2022-12-05T04:59:01.641Z,4.65
2022-12-05T05:01:31.297Z,4.60
2022-12-05T05:04:07.998Z,4.65
2022-12-05T05:06:36.627Z,4.72
2022-12-05T05:09:03.128Z,4.59
2022-12-05T05:11:30.795Z,4.64
2022-12-05T05:13:57.342Z,4.68
2022-12-05T05:16:26.952Z,4.75
2022-12-05T05:18:53.568Z,4.66
2022-12-05T05:21:21.114Z,4.71
2022-12-05T05:23:47.771Z,4.71
2022-12-05T05:26:14.578Z,4.73
2022-12-05T05:28:41.115Z,4.75
2022-12-05T05:31:07.819Z,4.88
2022-12-05T05:33:34.681Z,5.00
2022-12-05T05:36:11.464Z,4.94
2022-12-05T05:38:38.609Z,4.90
2022-12-05T05:41:05.307Z,4.94
2022-12-05T05:43:31.853Z,4.89
2022-12-05T05:46:01.384Z,4.91
2022-12-05T05:48:32.283Z,4.89
2022-12-05T05:51:02.584Z,4.98
2022-12-05T05:53:29.165Z,4.85
2022-12-05T05:55:56.418Z,4.86
2022-12-05T05:58:23.409Z,4.96
2022-12-05T06:00:54.039Z,4.98
2022-12-05T06:03:23.860Z,4.81
2022-12-05T06:06:06.820Z,4.87
2022-12-05T06:08:35.471Z,4.84
2022-12-05T06:11:20.212Z,4.82
2022-12-05T06:13:49.895Z,4.78
2022-12-05T06:16:22.030Z,4.77
2022-12-05T06:18:49.951Z,4.84
2022-12-05T06:21:17.253Z,4.78
2022-12-05T06:23:44.521Z,4.75
2022-12-05T06:26:14.553Z,4.94
2022-12-05T06:28:41.490Z,4.83
2022-12-05T06:31:14.358Z,4.87
2022-12-05T06:33:44.374Z,4.82
2022-12-05T06:36:18.175Z,4.87
2022-12-05T06:38:44.770Z,4.89
2022-12-05T06:41:12.416Z,4.95
2022-12-05T06:43:38.990Z,5.05
2022-12-05T06:46:06.510Z,5.10
2022-12-05T06:48:33.175Z,5.00
2022-12-05T06:51:00.458Z,5.01
2022-12-05T06:53:27.285Z,4.88
2022-12-05T06:55:57.760Z,5.07
2022-12-05T06:58:24.522Z,5.00
2022-12-05T07:01:09.742Z,5.04
2022-12-05T07:03:36.278Z,4.95
2022-12-05T07:06:03.315Z,5.03
2022-12-05T07:08:30.021Z,5.07
2022-12-05T07:10:56.630Z,5.10
2022-12-05T07:13:23.214Z,5.02
2022-12-05T07:15:50.027Z,5.24
2022-12-05T07:18:17.343Z,5.22
2022-12-05T07:21:10.585Z,5.12
2022-12-05T07:23:30.958Z,5.28
2022-12-05T07:26:00.493Z,5.34
2022-12-05T07:28:27.095Z,5.27
2022-12-05T07:31:03.211Z,5.24
2022-12-05T07:33:29.791Z,5.30
2022-12-05T07:36:03.028Z,5.23
2022-12-05T07:38:29.614Z,5.35
2022-12-05T07:41:05.221Z,5.32
2022-12-05T07:43:37.941Z,5.23
2022-12-05T07:46:05.266Z,5.23
2022-12-05T07:48:32.051Z,5.25
2022-12-05T07:51:01.561Z,5.43
2022-12-05T07:53:28.382Z,5.44
2022-12-05T07:55:55.036Z,5.53
2022-12-05T07:58:21.598Z,5.42
2022-12-05T08:00:48.188Z,5.42
2022-12-05T08:03:14.745Z,5.39
2022-12-05T08:05:41.273Z,5.38
2022-12-05T08:08:07.966Z,5.45
2022-12-05T08:10:35.159Z,5.43
2022-12-05T08:13:01.695Z,5.31
2022-12-05T08:15:28.276Z,5.52
2022-12-05T08:17:54.783Z,5.60
2022-12-05T08:20:21.327Z,5.63
2022-12-05T08:23:08.233Z,5.61
2022-12-05T08:25:36.743Z,5.62
2022-12-05T08:28:03.280Z,5.65
2022-12-05T08:30:29.815Z,5.58
2022-12-05T08:32:56.408Z,5.61
2022-12-05T08:35:23.040Z,5.66
2022-12-05T08:37:49.610Z,5.67
2022-12-05T08:40:16.213Z,5.64
2022-12-05T08:42:42.737Z,5.62
2022-12-05T08:45:09.746Z,5.76
2022-12-05T08:47:36.269Z,5.78
2022-12-05T08:50:02.814Z,5.81
2022-12-05T08:52:30.033Z,5.91
2022-12-05T08:54:56.915Z,5.69
2022-12-05T08:57:23.698Z,5.62
2022-12-05T08:59:50.187Z,5.36
2022-12-05T09:02:16.814Z,5.55
2022-12-05T09:04:43.538Z,5.62
2022-12-05T09:07:10.101Z,5.70
2022-12-05T09:09:36.704Z,5.75
2022-12-05T09:12:03.355Z,5.86
2022-12-05T09:14:33.180Z,5.72
2022-12-05T09:17:01.094Z,5.78
2022-12-05T09:19:28.644Z,5.88
2022-12-05T09:21:55.550Z,5.89
2022-12-05T09:24:22.567Z,6.04
2022-12-05T09:26:49.128Z,5.91
2022-12-05T09:29:17.956Z,5.90
2022-12-05T09:31:45.071Z,5.91
2022-12-05T09:34:13.476Z,6.08
2022-12-05T09:36:39.992Z,6.12
2022-12-05T09:39:06.912Z,6.07
2022-12-05T09:42:01.221Z,6.05
2022-12-05T09:44:36.686Z,6.01
2022-12-05T09:47:04.495Z,6.15
2022-12-05T09:49:31.063Z,6.18
2022-12-05T09:51:57.652Z,6.32
2022-12-05T09:54:24.721Z,6.32
2022-12-05T09:56:51.731Z,6.47
2022-12-05T09:59:20.467Z,6.63
2022-12-05T10:01:57.868Z,6.71
2022-12-05T10:04:24.453Z,6.70
2022-12-05T10:07:09.520Z,6.71
2022-12-05T10:09:54.750Z,6.61
2022-12-05T10:12:37.968Z,6.65
2022-12-05T10:15:04.521Z,6.62
2022-12-05T10:17:32.605Z,6.58
2022-12-05T10:20:00.443Z,6.38
2022-12-05T10:22:29.084Z,6.28
2022-12-05T10:24:56.757Z,6.25
2022-12-05T10:27:28.987Z,6.20
2022-12-05T10:30:00.218Z,6.14
2022-12-05T10:32:28.878Z,6.24
2022-12-05T10:34:55.704Z,6.34
2022-12-05T10:37:22.916Z,6.37
2022-12-05T10:39:50.153Z,6.43
2022-12-05T10:42:17.773Z,6.58
2022-12-05T10:44:44.623Z,6.58
2022-12-05T10:47:11.189Z,6.50
2022-12-05T10:49:38.226Z,6.65
2022-12-05T10:52:05.568Z,6.74
2022-12-05T10:54:32.895Z,6.66
2022-12-05T10:56:59.473Z,6.75
2022-12-05T10:59:27.149Z,6.74
2022-12-05T11:01:55.272Z,6.70
2022-12-05T11:04:23.315Z,6.80
2022-12-05T11:06:50.595Z,6.80
2022-12-05T11:09:34.091Z,6.80
2022-12-05T11:12:14.922Z,6.72
2022-12-05T11:14:42.970Z,6.85
2022-12-05T11:17:10.063Z,7.02
2022-12-05T11:19:37.629Z,7.03
2022-12-05T11:22:05.903Z,7.14
2022-12-05T11:24:33.462Z,7.10
2022-12-05T11:27:01.338Z,7.08
2022-12-05T11:29:38.516Z,7.28
2022-12-05T11:32:06.391Z,7.38
2022-12-05T11:34:38.433Z,7.46
2022-12-05T11:37:06.902Z,7.32
2022-12-05T11:39:33.624Z,7.00
2022-12-05T11:42:13.249Z,7.08
2022-12-05T11:44:39.867Z,7.08
2022-12-05T11:47:15.488Z,7.36
2022-12-05T11:50:01.714Z,7.55
2022-12-05T11:52:49.588Z,7.60
2022-12-05T11:55:23.128Z,7.83
2022-12-05T11:58:02.330Z,7.69
2022-12-05T12:00:42.660Z,7.93
2022-12-05T12:03:33.108Z,7.58
2022-12-05T12:06:03.315Z,7.68
2022-12-05T12:08:30.554Z,7.67
2022-12-05T12:10:59.662Z,7.72
2022-12-05T12:13:29.335Z,7.73
2022-12-05T12:16:08.757Z,7.70
2022-12-05T12:18:45.226Z,7.54
2022-12-05T12:21:27.622Z,7.33
2022-12-05T12:24:01.334Z,7.33
2022-12-05T12:26:44.472Z,7.42
2022-12-05T12:29:26.231Z,7.30
2022-12-05T12:32:08.017Z,7.55
2022-12-05T12:34:41.422Z,7.41
2022-12-05T12:37:14.191Z,7.33
2022-12-05T12:39:59.358Z,7.37
2022-12-05T12:42:27.872Z,7.39
2022-12-05T12:45:13.207Z,7.31
2022-12-05T12:47:49.130Z,7.53
2022-12-05T12:50:15.762Z,7.39
2022-12-05T12:53:00.852Z,7.46
2022-12-05T12:55:27.316Z,7.55
2022-12-05T12:58:29.214Z,7.44
2022-12-05T13:01:14.865Z,7.80
2022-12-05T13:04:02.859Z,7.60
2022-12-05T13:06:34.080Z,7.52
2022-12-05T13:09:02.838Z,7.68
2022-12-05T13:11:30.061Z,7.58
2022-12-05T13:13:57.038Z,7.61
2022-12-05T13:16:33.922Z,7.55
2022-12-05T13:19:06.093Z,7.68
2022-12-05T13:21:32.800Z,7.49
2022-12-05T13:24:03.460Z,7.70
2022-12-05T13:26:31.417Z,7.71
2022-12-05T13:28:58.473Z,7.69
2022-12-05T13:31:41.358Z,7.63
2022-12-05T13:34:39.711Z,7.56
2022-12-05T13:37:36.358Z,7.49
2022-12-05T13:40:22.083Z,7.45
2022-12-05T13:42:52.039Z,7.42
2022-12-05T13:45:19.568Z,7.29
2022-12-05T13:48:01.634Z,7.37
2022-12-05T13:50:51.726Z,7.41
2022-12-05T13:53:30.661Z,7.24
2022-12-05T13:55:59.091Z,7.35
2022-12-05T13:58:25.678Z,7.26
2022-12-05T14:00:52.451Z,7.15
2022-12-05T14:03:21.967Z,7.15
2022-12-05T14:05:52.276Z,7.23
2022-12-05T14:08:31.511Z,6.94
2022-12-05T14:10:57.979Z,7.02
2022-12-05T14:13:25.401Z,6.93
2022-12-05T14:15:52.197Z,6.97
2022-12-05T14:18:20.816Z,6.84
2022-12-05T14:20:47.329Z,6.90
2022-12-05T14:23:22.717Z,6.73
2022-12-05T14:25:59.621Z,6.69
2022-12-05T14:28:37.156Z,6.59
2022-12-05T14:31:22.508Z,6.78
2022-12-05T14:34:07.890Z,6.76
2022-12-05T14:36:34.511Z,6.68
2022-12-05T14:39:01.108Z,6.63
2022-12-05T14:41:31.428Z,6.70
2022-12-05T14:43:57.940Z,6.60
2022-12-05T14:46:29.219Z,6.55
2022-12-05T14:48:56.311Z,6.51
2022-12-05T14:51:35.113Z,6.55
2022-12-05T14:54:05.198Z,6.59
2022-12-05T14:56:31.865Z,6.56
2022-12-05T14:59:01.380Z,6.54
2022-12-05T15:01:54.397Z,6.54
2022-12-05T15:04:24.221Z,6.54
2022-12-05T15:06:55.007Z,6.49
2022-12-05T15:09:41.830Z,6.42
2022-12-05T15:12:20.410Z,6.42
2022-12-05T15:14:48.451Z,6.29
2022-12-05T15:17:16.534Z,6.39
2022-12-05T15:19:47.650Z,6.36
2022-12-05T15:22:14.586Z,6.41
2022-12-05T15:24:41.239Z,6.36
2022-12-05T15:27:11.627Z,6.50
2022-12-05T15:29:38.710Z,6.28
2022-12-05T15:32:08.324Z,6.29
2022-12-05T15:34:34.834Z,6.28
2022-12-05T15:37:19.977Z,6.29
2022-12-05T15:39:50.523Z,6.21
2022-12-05T15:42:17.017Z,6.24
2022-12-05T15:44:43.564Z,6.12
2022-12-05T15:47:18.540Z,6.07
2022-12-05T15:49:45.057Z,6.08
2022-12-05T15:52:31.951Z,6.07
2022-12-05T15:54:59.643Z,6.08
2022-12-05T15:57:33.431Z,6.11
2022-12-05T16:00:05.222Z,5.92
2022-12-05T16:02:44.227Z,5.73
2022-12-05T16:05:21.323Z,5.69
2022-12-05T16:07:48.396Z,5.52
2022-12-05T16:10:15.620Z,5.44
2022-12-05T16:12:42.147Z,5.29
2022-12-05T16:15:18.855Z,5.15
2022-12-05T16:17:46.370Z,5.04
2022-12-05T16:20:15.994Z,4.97
2022-12-05T16:22:46.051Z,4.87
2022-12-05T16:25:14.014Z,4.86
2022-12-05T16:27:41.020Z,4.81
2022-12-05T16:30:11.790Z,4.81
2022-12-05T16:32:38.914Z,4.79
2022-12-05T16:35:23.558Z,4.73
2022-12-05T16:38:02.275Z,4.71
2022-12-05T16:40:29.039Z,4.80
2022-12-05T16:43:05.685Z,4.74
2022-12-05T16:45:42.532Z,4.77
2022-12-05T16:48:16.512Z,4.82
2022-12-05T16:50:43.388Z,4.89
2022-12-05T16:53:09.903Z,4.93
2022-12-05T16:55:39.744Z,4.95
2022-12-05T16:58:06.818Z,5.06
2022-12-05T17:00:33.394Z,5.10
2022-12-05T17:03:25.861Z,5.14
2022-12-05T17:05:46.537Z,5.14
2022-12-05T17:08:13.475Z,5.31
2022-12-05T17:10:40.144Z,5.33
2022-12-05T17:13:06.745Z,5.39
2022-12-05T17:15:33.332Z,5.43
2022-12-05T17:18:00.096Z,5.47
2022-12-05T17:20:26.920Z,5.48
2022-12-05T17:22:53.692Z,5.48
2022-12-05T17:25:23.369Z,5.48
2022-12-05T17:27:49.907Z,5.52
2022-12-05T17:30:16.560Z,5.49
2022-12-05T17:32:43.917Z,5.52
2022-12-05T17:35:15.339Z,5.44
2022-12-05T17:37:41.902Z,5.63
2022-12-05T17:40:08.920Z,5.42
2022-12-05T17:42:35.465Z,5.44
2022-12-05T17:45:02.357Z,5.50
2022-12-05T17:47:28.878Z,5.56
2022-12-05T17:49:55.917Z,5.57
2022-12-05T17:52:22.909Z,5.52
2022-12-05T17:54:49.553Z,5.61
2022-12-05T17:57:16.109Z,5.69
2022-12-05T17:59:42.713Z,5.60
2022-12-05T18:02:09.871Z,5.66
2022-12-05T18:04:37.060Z,5.68
2022-12-05T18:07:03.582Z,5.66
2022-12-05T18:09:31.057Z,5.63
2022-12-05T18:11:57.692Z,5.57
2022-12-05T18:14:25.831Z,5.50
2022-12-05T18:16:52.380Z,5.49
2022-12-05T18:19:18.967Z,5.55
2022-12-05T18:24:12.990Z,5.62
2022-12-05T18:26:39.535Z,5.61
2022-12-05T18:29:06.039Z,5.63
2022-12-05T18:31:32.691Z,5.56
2022-12-05T18:33:59.338Z,5.46
2022-12-05T18:36:25.969Z,5.24
2022-12-05T18:38:53.972Z,5.27
2022-12-05T18:41:21.046Z,5.41
2022-12-05T18:43:47.602Z,5.39
2022-12-05T18:46:14.241Z,5.10
2022-12-05T18:48:44.878Z,4.89
2022-12-05T18:51:15.184Z,4.59
2022-12-05T18:53:42.705Z,4.67
2022-12-05T18:56:26.022Z,4.76
2022-12-05T18:58:59.199Z,4.49
2022-12-05T19:01:26.410Z,4.30
2022-12-05T19:03:53.171Z,4.21
2022-12-05T19:06:21.175Z,4.13
2022-12-05T19:08:48.105Z,4.09
2022-12-05T19:11:15.671Z,3.95
2022-12-05T19:13:42.701Z,3.99
2022-12-05T19:16:11.412Z,4.04
2022-12-05T19:18:38.103Z,4.02
2022-12-05T19:21:04.736Z,4.21
2022-12-05T19:23:32.398Z,4.31
2022-12-05T19:26:02.810Z,4.30
2022-12-05T19:28:29.299Z,4.27
2022-12-05T19:31:14.578Z,4.25
2022-12-05T19:33:41.905Z,4.28
2022-12-05T19:36:13.579Z,4.31
2022-12-05T19:38:41.022Z,4.32
2022-12-05T19:41:08.424Z,4.40
2022-12-05T19:43:35.310Z,4.66
2022-12-05T19:46:16.324Z,4.78
2022-12-05T19:48:43.144Z,4.79
2022-12-05T19:51:09.698Z,4.87
2022-12-05T19:53:37.498Z,4.90
2022-12-05T19:56:08.934Z,4.88
2022-12-05T19:58:36.168Z,4.90
2022-12-05T20:01:08.865Z,5.00
2022-12-05T20:03:35.865Z,5.07
2022-12-05T20:06:02.419Z,5.10
2022-12-05T20:08:29.002Z,5.01
2022-12-05T20:10:55.593Z,5.02
2022-12-05T20:13:45.872Z,5.01
2022-12-05T20:16:09.789Z,5.14
2022-12-05T20:18:37.701Z,5.12
2022-12-05T20:21:04.823Z,5.07
2022-12-05T20:23:31.806Z,5.03
2022-12-05T20:26:02.574Z,5.00
2022-12-05T20:28:29.458Z,5.01
2022-12-05T20:31:05.426Z,5.03
2022-12-05T20:33:32.078Z,5.01
2022-12-05T20:36:08.948Z,4.98
2022-12-05T20:38:35.941Z,4.99
2022-12-05T20:41:03.681Z,5.01
2022-12-05T20:43:30.311Z,5.06
2022-12-05T20:45:56.964Z,5.07
2022-12-05T20:48:26.144Z,4.99
2022-12-05T20:50:54.126Z,5.05
2022-12-05T20:53:21.833Z,5.10
2022-12-05T20:55:48.459Z,5.01
2022-12-05T20:58:15.052Z,5.06
2022-12-05T21:00:43.730Z,5.11
2022-12-05T21:03:15.623Z,5.10
2022-12-05T21:05:43.691Z,5.07
2022-12-05T21:08:10.512Z,5.06
2022-12-05T21:10:37.485Z,4.98
2022-12-05T21:13:05.185Z,5.06
2022-12-05T21:15:31.739Z,5.11
2022-12-05T21:17:58.235Z,5.04
2022-12-05T21:20:24.939Z,5.08
2022-12-05T21:22:51.675Z,5.12
2022-12-05T21:25:18.416Z,5.09
2022-12-05T21:27:45.270Z,5.21
2022-12-05T21:30:11.947Z,5.08
2022-12-05T21:32:38.605Z,5.03
2022-12-05T21:35:05.716Z,5.03
2022-12-05T21:37:32.234Z,5.00
2022-12-05T21:39:59.083Z,4.96
2022-12-05T21:42:25.693Z,4.92
2022-12-05T21:44:52.198Z,4.81
2022-12-05T21:47:18.771Z,4.77
2022-12-05T21:49:45.452Z,4.78
2022-12-05T21:52:11.918Z,4.80
2022-12-05T21:54:38.478Z,4.91
2022-12-05T21:57:05.014Z,4.84
2022-12-05T21:59:32.722Z,4.69
2022-12-05T22:01:59.559Z,4.73
2022-12-05T22:04:26.173Z,4.75
2022-12-05T22:06:52.696Z,4.77
2022-12-05T22:09:19.280Z,4.75
2022-12-05T22:11:46.021Z,4.81
2022-12-05T22:14:12.534Z,4.76
2022-12-05T22:16:39.140Z,4.80
2022-12-05T22:19:05.736Z,4.82
2022-12-05T22:21:34.337Z,4.87
2022-12-05T22:24:01.057Z,4.87
2022-12-05T22:26:27.545Z,4.84
2022-12-05T22:28:54.707Z,4.81
2022-12-05T22:31:21.702Z,4.82
2022-12-05T22:33:48.556Z,4.86
2022-12-05T22:36:16.274Z,4.84
2022-12-05T22:38:44.033Z,4.89
2022-12-05T22:41:14.647Z,4.91
2022-12-05T22:43:41.653Z,4.89
2022-12-05T22:46:09.139Z,4.90
2022-12-05T22:48:35.867Z,4.84
2022-12-05T22:51:03.035Z,4.83
2022-12-05T22:53:30.569Z,4.87
2022-12-05T22:56:05.458Z,4.93
2022-12-05T22:58:32.058Z,4.79
2022-12-05T23:00:58.879Z,4.73
2022-12-05T23:03:25.603Z,4.74
2022-12-05T23:05:52.414Z,4.72
2022-12-05T23:08:19.044Z,4.72
2022-12-05T23:10:45.617Z,4.77
2022-12-05T23:13:12.384Z,4.72
2022-12-05T23:15:39.159Z,4.74
2022-12-05T23:18:05.773Z,4.67
2022-12-05T23:20:32.813Z,4.64
2022-12-05T23:22:59.415Z,4.59
2022-12-05T23:25:26.009Z,4.62
2022-12-05T23:27:52.647Z,4.52
2022-12-05T23:30:19.255Z,4.42
2022-12-05T23:32:45.785Z,4.39
2022-12-05T23:35:12.440Z,4.30
2022-12-05T23:37:39.706Z,4.33
2022-12-05T23:40:06.510Z,4.39
2022-12-05T23:42:33.008Z,4.35
2022-12-05T23:44:59.583Z,4.27
2022-12-05T23:47:26.149Z,4.25
2022-12-05T23:49:52.710Z,4.28
2022-12-05T23:52:19.352Z,4.24
2022-12-05T23:54:45.952Z,4.37
2022-12-05T23:57:17.399Z,4.39
2022-12-05T23:59:44.450Z,4.43
